createdAt,value
2018-03-25T00:01:40.340Z,2.30
2018-03-25T00:04:07.830Z,2.30
2018-03-25T00:06:35.252Z,2.20
2018-03-25T00:09:03.462Z,2.10
2018-03-25T00:11:30.913Z,2.10
2018-03-25T00:13:58.399Z,2.10
2018-03-25T00:16:25.960Z,2.00
2018-03-25T00:18:53.449Z,1.90
2018-03-25T00:21:20.943Z,1.90
2018-03-25T00:23:49.159Z,1.90
2018-03-25T00:26:16.736Z,1.90
2018-03-25T00:28:44.217Z,2.00
2018-03-25T00:31:11.657Z,2.00
2018-03-25T00:33:39.128Z,2.00
2018-03-25T00:36:06.584Z,1.90
2018-03-25T00:38:34.123Z,1.80
2018-03-25T00:41:01.600Z,1.70
2018-03-25T00:43:29.053Z,1.60
2018-03-25T00:45:56.496Z,1.60
2018-03-25T00:48:23.939Z,1.60
2018-03-25T00:50:52.140Z,1.60
2018-03-25T00:53:19.584Z,1.60
2018-03-25T00:55:47.088Z,1.60
2018-03-25T00:58:14.534Z,1.70
2018-03-25T01:00:42.087Z,1.70
2018-03-25T01:03:09.581Z,1.70
2018-03-25T01:05:37.011Z,1.60
2018-03-25T01:08:04.469Z,1.60
2018-03-25T01:10:31.903Z,1.60
2018-03-25T01:12:59.343Z,1.60
2018-03-25T01:15:26.890Z,1.60
2018-03-25T01:17:54.445Z,1.60
2018-03-25T01:20:21.885Z,1.60
2018-03-25T01:22:49.368Z,1.50
2018-03-25T01:25:16.819Z,1.50
2018-03-25T01:27:44.298Z,1.50
2018-03-25T01:30:11.776Z,1.40
2018-03-25T01:32:39.209Z,1.50
2018-03-25T01:35:06.664Z,1.40
2018-03-25T01:37:34.131Z,1.40
2018-03-25T01:40:01.600Z,1.40
2018-03-25T01:42:29.038Z,1.40
2018-03-25T01:44:56.496Z,1.40
2018-03-25T01:47:23.928Z,1.30
2018-03-25T01:49:52.162Z,1.10
2018-03-25T01:52:19.798Z,1.10
2018-03-25T01:54:47.235Z,1.00
2018-03-25T01:57:15.559Z,1.00
2018-03-25T01:59:43.004Z,0.90
2018-03-25T02:02:10.452Z,1.00
2018-03-25T02:04:37.948Z,0.90
2018-03-25T02:07:05.380Z,0.90
2018-03-25T02:09:32.829Z,0.80
2018-03-25T02:12:01.152Z,0.70
2018-03-25T02:14:28.620Z,0.70
2018-03-25T02:16:56.182Z,0.70
2018-03-25T02:19:23.637Z,0.60
2018-03-25T02:21:51.171Z,0.50
2018-03-25T02:24:18.678Z,0.50
2018-03-25T02:26:46.136Z,0.50
2018-03-25T02:29:13.607Z,0.60
2018-03-25T02:31:41.039Z,0.60
2018-03-25T02:34:08.507Z,0.60
2018-03-25T02:36:35.974Z,0.50
2018-03-25T02:39:03.429Z,0.50
2018-03-25T02:41:30.866Z,0.50
2018-03-25T02:43:58.332Z,0.50
2018-03-25T02:46:25.767Z,0.50
2018-03-25T02:48:53.992Z,1.70
2018-03-25T02:51:21.451Z,0.40
2018-03-25T02:53:48.893Z,0.40
2018-03-25T02:56:16.332Z,0.40
2018-03-25T02:58:44.536Z,0.30
2018-03-25T03:01:11.979Z,0.30
2018-03-25T03:03:39.420Z,0.30
2018-03-25T03:06:07.633Z,0.20
2018-03-25T03:08:35.127Z,0.20
2018-03-25T03:11:02.682Z,0.20
2018-03-25T03:13:30.124Z,0.30
2018-03-25T03:15:57.568Z,0.30
2018-03-25T03:18:25.170Z,0.30
2018-03-25T03:20:52.620Z,0.30
2018-03-25T03:23:20.052Z,0.20
2018-03-25T03:25:47.530Z,0.10
2018-03-25T03:28:14.952Z,0.10
2018-03-25T03:30:42.424Z,0.20
2018-03-25T03:33:10.656Z,0.10
2018-03-25T03:35:38.100Z,0.10
2018-03-25T03:38:05.540Z,0.00
2018-03-25T03:40:33.020Z,0.00
2018-03-25T03:43:00.456Z,0.00
2018-03-25T03:45:27.955Z,0.00
2018-03-25T03:47:55.451Z,0.00
2018-03-25T03:50:22.895Z,0.00
2018-03-25T03:52:50.339Z,0.00
2018-03-25T03:55:17.780Z,0.00
2018-03-25T03:57:45.268Z,-0.10
2018-03-25T04:00:12.733Z,-0.10
2018-03-25T04:02:40.176Z,-0.10
2018-03-25T04:05:07.635Z,-0.10
2018-03-25T04:07:35.121Z,-0.20
2018-03-25T04:10:02.612Z,-0.10
2018-03-25T04:12:30.811Z,0.00
2018-03-25T04:14:58.324Z,0.00
2018-03-25T04:17:25.780Z,0.10
2018-03-25T04:19:53.239Z,0.10
2018-03-25T04:22:20.700Z,0.10
2018-03-25T04:24:48.137Z,0.10
2018-03-25T04:27:15.620Z,0.10
2018-03-25T04:29:43.075Z,0.00
2018-03-25T04:32:10.548Z,0.10
2018-03-25T04:34:37.983Z,0.10
2018-03-25T04:37:05.462Z,0.00
2018-03-25T04:39:32.895Z,0.10
2018-03-25T04:42:00.352Z,0.10
2018-03-25T04:44:28.563Z,0.10
2018-03-25T04:46:56.013Z,0.00
2018-03-25T04:49:23.448Z,0.00
2018-03-25T04:51:50.896Z,0.00
2018-03-25T04:54:19.127Z,0.10
2018-03-25T04:56:46.665Z,0.00
2018-03-25T04:59:14.111Z,0.00
2018-03-25T05:01:42.340Z,-0.20
2018-03-25T05:04:09.779Z,-0.20
2018-03-25T05:06:37.232Z,-0.20
2018-03-25T05:09:04.683Z,-0.20
2018-03-25T05:11:32.115Z,-0.10
2018-03-25T05:14:00.329Z,-0.10
2018-03-25T05:16:27.790Z,-0.20
2018-03-25T05:18:55.221Z,-0.20
2018-03-25T05:21:23.437Z,-0.20
2018-03-25T05:23:50.924Z,-0.20
2018-03-25T05:26:18.384Z,-0.20
2018-03-25T05:28:45.821Z,-0.20
2018-03-25T05:31:13.275Z,-0.30
2018-03-25T05:33:40.727Z,-0.40
2018-03-25T05:36:08.180Z,-0.40
2018-03-25T05:38:36.404Z,-0.30
2018-03-25T05:41:03.867Z,-0.30
2018-03-25T05:43:31.303Z,-0.20
2018-03-25T05:45:58.771Z,-0.20
2018-03-25T05:48:26.218Z,-0.10
2018-03-25T05:50:53.717Z,0.00
2018-03-25T05:53:21.171Z,0.00
2018-03-25T05:55:48.631Z,0.00
2018-03-25T05:58:16.076Z,0.10
2018-03-25T06:00:43.570Z,0.10
2018-03-25T06:03:11.124Z,0.10
2018-03-25T06:05:38.556Z,0.10
2018-03-25T06:08:05.998Z,0.10
2018-03-25T06:10:33.503Z,0.20
2018-03-25T06:13:00.952Z,0.20
2018-03-25T06:15:28.384Z,0.30
2018-03-25T06:17:55.880Z,0.50
2018-03-25T06:20:23.326Z,0.60
2018-03-25T06:22:50.789Z,0.90
2018-03-25T06:25:18.271Z,1.10
2018-03-25T06:27:45.732Z,1.30
2018-03-25T06:30:13.227Z,1.50
2018-03-25T06:32:40.680Z,1.70
2018-03-25T06:35:08.103Z,1.80
2018-03-25T06:37:35.576Z,1.90
2018-03-25T06:40:03.016Z,2.00
2018-03-25T06:42:30.467Z,2.00
2018-03-25T06:44:57.900Z,2.10
2018-03-25T06:47:26.110Z,2.30
2018-03-25T06:49:53.563Z,2.30
2018-03-25T06:52:21.020Z,2.50
2018-03-25T06:54:49.335Z,3.10
2018-03-25T06:57:16.811Z,3.00
2018-03-25T06:59:44.237Z,3.40
2018-03-25T07:02:11.752Z,3.60
2018-03-25T07:04:39.194Z,3.80
2018-03-25T07:07:06.643Z,4.10
2018-03-25T07:09:34.083Z,4.40
2018-03-25T07:12:01.572Z,4.90
2018-03-25T07:14:29.081Z,5.20
2018-03-25T07:16:56.504Z,5.50
2018-03-25T07:19:23.960Z,6.10
2018-03-25T07:21:51.432Z,6.60
2018-03-25T07:24:18.879Z,7.10
2018-03-25T07:26:46.322Z,7.50
2018-03-25T07:29:13.813Z,8.00
2018-03-25T07:31:41.359Z,8.50
2018-03-25T07:34:08.796Z,8.90
2018-03-25T07:36:36.230Z,9.40
2018-03-25T07:39:04.448Z,10.40
2018-03-25T07:41:31.892Z,10.40
2018-03-25T07:43:59.350Z,11.00
2018-03-25T07:46:27.543Z,11.80
2018-03-25T07:48:55.105Z,11.80
2018-03-25T07:51:22.531Z,12.00
2018-03-25T07:53:50.743Z,12.50
2018-03-25T07:56:18.179Z,12.50
2018-03-25T07:58:46.416Z,14.20
2018-03-25T08:01:13.968Z,14.20
2018-03-25T08:03:41.432Z,15.30
2018-03-25T08:06:08.876Z,16.30
2018-03-25T08:08:36.360Z,17.20
2018-03-25T08:11:03.844Z,17.80
2018-03-25T08:13:31.296Z,18.50
2018-03-25T08:15:58.727Z,19.40
2018-03-25T08:18:26.200Z,20.20
2018-03-25T08:20:53.669Z,20.80
2018-03-25T08:23:21.124Z,21.30
2018-03-25T08:25:48.625Z,22.10
2018-03-25T08:28:16.036Z,22.30
2018-03-25T08:30:43.483Z,22.60
2018-03-25T08:33:10.971Z,22.90
2018-03-25T08:35:38.510Z,22.80
2018-03-25T08:38:05.943Z,22.40
2018-03-25T08:40:34.155Z,21.40
2018-03-25T08:43:01.599Z,21.40
2018-03-25T08:45:29.044Z,21.30
2018-03-25T08:47:57.266Z,21.20
2018-03-25T08:50:24.740Z,21.20
2018-03-25T08:52:52.282Z,21.40
2018-03-25T08:55:19.727Z,21.60
2018-03-25T08:57:47.224Z,21.70
2018-03-25T09:00:14.682Z,22.10
2018-03-25T09:02:42.136Z,22.20
2018-03-25T09:05:09.585Z,22.60
2018-03-25T09:07:37.041Z,22.90
2018-03-25T09:10:04.536Z,23.50
2018-03-25T09:12:32.096Z,23.30
2018-03-25T09:14:59.633Z,23.30
2018-03-25T09:17:27.072Z,23.20
2018-03-25T09:19:55.295Z,21.80
2018-03-25T09:22:22.756Z,21.80
2018-03-25T09:24:50.208Z,21.00
2018-03-25T09:27:17.658Z,20.10
2018-03-25T09:29:45.147Z,20.40
2018-03-25T09:32:12.594Z,21.30
2018-03-25T09:34:40.086Z,22.20
2018-03-25T09:37:07.523Z,23.00
2018-03-25T09:39:34.977Z,23.50
2018-03-25T09:42:02.424Z,24.10
2018-03-25T09:44:29.937Z,24.60
2018-03-25T09:46:57.367Z,25.70
2018-03-25T09:49:24.814Z,26.40
2018-03-25T09:51:52.252Z,26.80
2018-03-25T09:54:19.708Z,27.40
2018-03-25T09:56:47.912Z,28.10
2018-03-25T09:59:15.372Z,28.00
2018-03-25T10:01:48.515Z,28.50
2018-03-25T10:04:15.979Z,28.80
2018-03-25T10:06:43.418Z,28.90
2018-03-25T10:09:10.980Z,29.00
2018-03-25T10:11:38.426Z,28.80
2018-03-25T10:14:05.901Z,28.30
2018-03-25T10:16:33.360Z,27.80
2018-03-25T10:19:00.816Z,27.20
2018-03-25T10:21:28.276Z,26.90
2018-03-25T10:23:55.755Z,27.20
2018-03-25T10:26:24.011Z,27.70
2018-03-25T10:28:51.460Z,28.40
2018-03-25T10:31:18.932Z,28.90
2018-03-25T10:33:46.427Z,29.00
2018-03-25T10:36:13.873Z,29.10
2018-03-25T10:38:42.158Z,29.90
2018-03-25T10:41:09.628Z,30.20
2018-03-25T10:43:37.183Z,30.40
2018-03-25T10:46:04.638Z,30.60
2018-03-25T10:48:32.276Z,30.30
2018-03-25T10:50:59.713Z,30.60
2018-03-25T10:53:27.943Z,28.60
2018-03-25T10:55:55.398Z,28.60
2018-03-25T10:58:22.843Z,27.70
2018-03-25T11:00:50.296Z,28.00
2018-03-25T11:03:17.792Z,29.30
2018-03-25T11:05:45.249Z,30.50
2018-03-25T11:08:12.819Z,30.60
2018-03-25T11:10:40.270Z,29.60
2018-03-25T11:13:07.728Z,29.20
2018-03-25T11:15:35.208Z,28.70
2018-03-25T11:18:02.648Z,27.20
2018-03-25T11:20:30.128Z,25.50
2018-03-25T11:22:57.567Z,24.20
2018-03-25T11:25:25.008Z,23.10
2018-03-25T11:27:52.476Z,21.70
2018-03-25T11:30:19.979Z,21.10
2018-03-25T11:32:47.411Z,20.50
2018-03-25T11:35:14.848Z,20.00
2018-03-25T11:37:42.352Z,19.70
2018-03-25T11:40:09.938Z,19.50
2018-03-25T11:42:37.356Z,19.50
2018-03-25T11:45:04.820Z,20.00
2018-03-25T11:47:32.286Z,21.90
2018-03-25T11:49:59.834Z,23.70
2018-03-25T11:52:27.261Z,23.80
2018-03-25T11:54:54.757Z,23.40
2018-03-25T11:57:23.371Z,22.50
2018-03-25T11:59:50.847Z,22.50
2018-03-25T12:02:18.296Z,21.80
2018-03-25T12:04:45.740Z,21.20
2018-03-25T12:07:13.225Z,20.60
2018-03-25T12:09:40.675Z,20.20
2018-03-25T12:12:08.107Z,19.80
2018-03-25T12:14:35.599Z,19.30
2018-03-25T12:17:03.052Z,19.10
2018-03-25T12:19:30.532Z,18.90
2018-03-25T12:21:57.979Z,18.60
2018-03-25T12:24:25.451Z,18.20
2018-03-25T12:26:52.913Z,18.00
2018-03-25T12:29:20.361Z,17.90
2018-03-25T12:31:47.820Z,17.70
2018-03-25T12:34:15.299Z,17.80
2018-03-25T12:36:42.856Z,17.80
2018-03-25T12:39:10.291Z,17.80
2018-03-25T12:41:37.784Z,17.90
2018-03-25T12:44:05.317Z,18.00
2018-03-25T12:46:32.808Z,18.20
2018-03-25T12:49:00.274Z,18.30
2018-03-25T12:51:27.833Z,18.50
2018-03-25T12:53:55.296Z,18.50
2018-03-25T12:56:22.744Z,18.40
2018-03-25T12:58:50.212Z,18.40
2018-03-25T13:01:17.655Z,18.20
2018-03-25T13:03:45.163Z,18.10
2018-03-25T13:06:12.617Z,17.90
2018-03-25T13:08:40.344Z,17.60
2018-03-25T13:11:07.840Z,17.50
2018-03-25T13:13:35.292Z,17.70
2018-03-25T13:16:02.760Z,17.80
2018-03-25T13:18:30.207Z,17.80
2018-03-25T13:20:57.651Z,17.80
2018-03-25T13:23:25.124Z,17.80
2018-03-25T13:25:52.572Z,17.50
2018-03-25T13:28:20.059Z,17.40
2018-03-25T13:30:47.503Z,17.30
2018-03-25T13:33:14.950Z,17.20
2018-03-25T13:35:42.400Z,17.00
2018-03-25T13:38:10.599Z,17.10
2018-03-25T13:40:38.061Z,17.10
2018-03-25T13:43:05.514Z,17.10
2018-03-25T13:45:32.977Z,16.90
2018-03-25T13:48:00.416Z,16.90
2018-03-25T13:50:28.644Z,16.70
2018-03-25T13:52:56.129Z,16.70
2018-03-25T13:55:23.580Z,16.80
2018-03-25T13:57:51.038Z,16.70
2018-03-25T14:00:18.487Z,16.70
2018-03-25T14:02:45.957Z,16.70
2018-03-25T14:05:13.398Z,16.30
2018-03-25T14:07:40.839Z,16.40
2018-03-25T14:10:08.288Z,16.60
2018-03-25T14:12:36.536Z,16.60
2018-03-25T14:15:04.072Z,16.60
2018-03-25T14:17:31.544Z,16.50
2018-03-25T14:19:58.980Z,16.20
2018-03-25T14:22:26.452Z,16.30
2018-03-25T14:24:53.923Z,16.10
2018-03-25T14:27:21.375Z,16.00
2018-03-25T14:29:48.833Z,15.80
2018-03-25T14:32:16.331Z,15.70
2018-03-25T14:34:43.781Z,15.50
2018-03-25T14:37:11.225Z,15.10
2018-03-25T14:39:38.668Z,14.90
2018-03-25T14:42:06.123Z,14.70
2018-03-25T14:44:33.560Z,14.40
2018-03-25T14:47:01.773Z,14.40
2018-03-25T14:49:29.221Z,14.40
2018-03-25T14:51:56.672Z,14.40
2018-03-25T14:54:24.904Z,14.40
2018-03-25T14:56:52.351Z,14.40
2018-03-25T14:59:19.792Z,14.30
2018-03-25T15:01:47.299Z,14.10
2018-03-25T15:04:14.835Z,14.10
2018-03-25T15:06:42.292Z,14.20
2018-03-25T15:09:09.744Z,14.10
2018-03-25T15:11:37.205Z,14.10
2018-03-25T15:14:04.652Z,13.90
2018-03-25T15:16:32.104Z,13.70
2018-03-25T15:18:59.687Z,13.70
2018-03-25T15:21:27.124Z,13.60
2018-03-25T15:23:55.335Z,13.60
2018-03-25T15:26:22.787Z,13.60
2018-03-25T15:28:50.253Z,13.60
2018-03-25T15:31:17.705Z,13.50
2018-03-25T15:33:45.200Z,13.40
2018-03-25T15:36:12.644Z,13.30
2018-03-25T15:38:40.100Z,13.20
2018-03-25T15:41:07.540Z,13.20
2018-03-25T15:43:35.050Z,13.20
2018-03-25T15:46:02.614Z,13.10
2018-03-25T15:48:30.080Z,13.10
2018-03-25T15:50:57.697Z,13.00
2018-03-25T15:53:26.252Z,12.90
2018-03-25T15:55:53.959Z,12.80
2018-03-25T15:58:21.463Z,12.80
2018-03-25T16:00:48.909Z,12.70
2018-03-25T16:03:16.363Z,12.60
2018-03-25T16:05:43.818Z,12.50
2018-03-25T16:08:11.297Z,12.40
2018-03-25T16:10:38.743Z,12.40
2018-03-25T16:13:06.211Z,12.40
2018-03-25T16:15:33.680Z,12.30
2018-03-25T16:18:01.160Z,12.20
2018-03-25T16:20:28.732Z,12.20
2018-03-25T16:22:56.965Z,12.00
2018-03-25T16:25:24.538Z,12.00
2018-03-25T16:27:52.000Z,12.00
2018-03-25T16:30:19.471Z,12.00
2018-03-25T16:32:46.955Z,12.10
2018-03-25T16:35:14.408Z,12.10
2018-03-25T16:37:41.878Z,12.10
2018-03-25T16:40:09.429Z,12.00
2018-03-25T16:42:36.915Z,12.00
2018-03-25T16:45:04.444Z,12.00
2018-03-25T16:47:31.915Z,11.90
2018-03-25T16:49:59.348Z,11.90
2018-03-25T16:52:26.831Z,11.90
2018-03-25T16:54:54.278Z,11.90
2018-03-25T16:57:21.752Z,11.80
2018-03-25T16:59:49.194Z,11.80
2018-03-25T17:02:16.682Z,11.80
2018-03-25T17:04:44.183Z,11.70
2018-03-25T17:07:11.592Z,11.70
2018-03-25T17:09:39.041Z,11.70
2018-03-25T17:12:06.477Z,11.80
2018-03-25T17:14:33.939Z,11.70
2018-03-25T17:17:01.386Z,11.70
2018-03-25T17:19:29.638Z,11.60
2018-03-25T17:21:57.150Z,11.60
2018-03-25T17:24:24.556Z,11.60
2018-03-25T17:26:51.997Z,11.60
2018-03-25T17:29:19.452Z,11.50
2018-03-25T17:31:46.940Z,11.50
2018-03-25T17:34:14.393Z,11.40
2018-03-25T17:36:41.836Z,11.40
2018-03-25T17:39:09.321Z,11.30
2018-03-25T17:41:36.875Z,11.20
2018-03-25T17:44:04.332Z,11.20
2018-03-25T17:46:31.791Z,11.10
2018-03-25T17:48:59.260Z,11.10
2018-03-25T17:51:26.824Z,11.00
2018-03-25T17:53:54.277Z,11.00
2018-03-25T17:56:21.768Z,10.90
2018-03-25T17:58:49.215Z,10.90
2018-03-25T18:01:16.651Z,10.90
2018-03-25T18:03:44.116Z,10.80
2018-03-25T18:06:11.592Z,10.80
2018-03-25T18:08:39.051Z,10.80
2018-03-25T18:11:06.492Z,10.70
2018-03-25T18:13:33.976Z,10.70
2018-03-25T18:16:01.415Z,10.70
2018-03-25T18:18:28.908Z,10.70
2018-03-25T18:20:56.650Z,10.60
2018-03-25T18:23:23.826Z,10.60
2018-03-25T18:25:51.290Z,10.50
2018-03-25T18:28:18.743Z,10.50
2018-03-25T18:30:46.215Z,10.40
2018-03-25T18:33:13.693Z,10.40
2018-03-25T18:35:41.136Z,10.30
2018-03-25T18:38:08.671Z,10.20
2018-03-25T18:40:36.158Z,10.20
2018-03-25T18:43:03.615Z,10.20
2018-03-25T18:45:31.099Z,10.10
2018-03-25T18:47:58.566Z,10.10
2018-03-25T18:50:26.830Z,10.10
2018-03-25T18:52:54.345Z,10.00
2018-03-25T18:55:21.853Z,10.00
2018-03-25T18:57:50.004Z,9.90
2018-03-25T19:00:17.467Z,9.80
2018-03-25T19:02:44.935Z,9.90
2018-03-25T19:05:12.379Z,9.80
2018-03-25T19:07:39.823Z,9.80
2018-03-25T19:10:08.048Z,9.70
2018-03-25T19:12:35.586Z,9.70
2018-03-25T19:15:03.024Z,9.70
2018-03-25T19:17:31.254Z,9.70
2018-03-25T19:19:58.714Z,9.70
2018-03-25T19:22:26.247Z,9.70
2018-03-25T19:24:53.680Z,9.70
2018-03-25T19:27:21.891Z,9.70
2018-03-25T19:29:49.451Z,9.70
2018-03-25T19:32:16.896Z,9.70
2018-03-25T19:34:45.103Z,9.70
2018-03-25T19:37:12.576Z,9.70
2018-03-25T19:39:40.056Z,9.70
2018-03-25T19:42:07.509Z,9.70
2018-03-25T19:44:34.961Z,9.70
2018-03-25T19:47:02.508Z,9.70
2018-03-25T19:49:29.961Z,9.70
2018-03-25T19:51:57.464Z,9.70
2018-03-25T19:54:25.013Z,9.70
2018-03-25T19:56:52.455Z,9.70
2018-03-25T19:59:19.931Z,9.70
2018-03-25T20:01:47.369Z,9.70
2018-03-25T20:04:14.820Z,9.60
2018-03-25T20:06:42.265Z,9.60
2018-03-25T20:09:10.504Z,9.60
2018-03-25T20:11:38.001Z,9.60
2018-03-25T20:14:05.434Z,9.60
2018-03-25T20:16:32.958Z,9.60
2018-03-25T20:19:00.456Z,9.60
2018-03-25T20:21:27.900Z,9.60
2018-03-25T20:23:55.376Z,9.50
2018-03-25T20:26:22.820Z,9.50
2018-03-25T20:28:50.286Z,9.50
2018-03-25T20:31:17.735Z,9.40
2018-03-25T20:33:45.171Z,9.40
2018-03-25T20:36:12.676Z,9.40
2018-03-25T20:38:40.553Z,9.30
2018-03-25T20:41:07.996Z,9.30
2018-03-25T20:43:35.443Z,9.30
2018-03-25T20:46:02.892Z,9.30
2018-03-25T20:48:30.401Z,9.30
2018-03-25T20:50:57.865Z,9.30
2018-03-25T20:53:25.301Z,9.30
2018-03-25T20:55:52.744Z,9.20
2018-03-25T20:58:20.240Z,9.20
2018-03-25T21:00:47.696Z,9.30
2018-03-25T21:03:15.143Z,9.20
2018-03-25T21:05:42.641Z,9.20
2018-03-25T21:08:10.132Z,9.20
2018-03-25T21:10:38.345Z,9.10
2018-03-25T21:13:05.776Z,9.10
2018-03-25T21:15:34.012Z,9.10
2018-03-25T21:18:01.467Z,9.10
2018-03-25T21:20:28.910Z,9.10
2018-03-25T21:22:56.392Z,9.10
2018-03-25T21:25:23.857Z,9.10
2018-03-25T21:27:51.340Z,9.10
2018-03-25T21:30:18.782Z,9.10
2018-03-25T21:32:46.227Z,9.10
2018-03-25T21:35:13.671Z,9.00
2018-03-25T21:37:41.115Z,9.00
2018-03-25T21:40:08.612Z,9.00
2018-03-25T21:42:36.154Z,9.00
2018-03-25T21:45:03.589Z,8.90
2018-03-25T21:47:31.815Z,8.90
2018-03-25T21:49:59.280Z,8.90
2018-03-25T21:52:26.711Z,8.90
2018-03-25T21:54:54.199Z,8.90
2018-03-25T21:57:21.644Z,8.90
2018-03-25T21:59:49.124Z,8.90
2018-03-25T22:02:16.589Z,8.80
2018-03-25T22:04:44.070Z,8.90
2018-03-25T22:07:11.667Z,8.80
2018-03-25T22:09:39.121Z,8.80
2018-03-25T22:12:07.355Z,8.90
2018-03-25T22:14:34.829Z,8.80
2018-03-25T22:17:02.388Z,8.80
2018-03-25T22:19:29.873Z,8.80
2018-03-25T22:21:57.315Z,8.80
2018-03-25T22:24:24.774Z,8.70
2018-03-25T22:26:52.224Z,8.70
2018-03-25T22:29:19.668Z,8.70
2018-03-25T22:31:47.123Z,8.70
2018-03-25T22:34:14.607Z,8.60
2018-03-25T22:36:42.066Z,8.60
2018-03-25T22:39:09.540Z,8.70
2018-03-25T22:41:36.985Z,8.60
2018-03-25T22:44:04.416Z,8.60
2018-03-25T22:46:31.919Z,8.60
2018-03-25T22:48:59.376Z,8.60
2018-03-25T22:51:26.859Z,8.60
2018-03-25T22:53:54.280Z,8.50
2018-03-25T22:56:21.723Z,8.50
2018-03-25T22:58:49.160Z,8.50
2018-03-25T23:01:17.372Z,8.50
2018-03-25T23:03:44.874Z,8.50
2018-03-25T23:06:12.321Z,8.50
2018-03-25T23:08:39.755Z,8.50
2018-03-25T23:11:07.325Z,8.40
2018-03-25T23:13:34.760Z,8.50
2018-03-25T23:16:02.996Z,8.40
2018-03-25T23:18:30.456Z,8.40
2018-03-25T23:20:57.914Z,8.40
2018-03-25T23:23:25.575Z,8.40
2018-03-25T23:25:53.040Z,8.40
2018-03-25T23:28:20.575Z,8.40
2018-03-25T23:30:48.089Z,8.40
2018-03-25T23:33:15.564Z,8.30
2018-03-25T23:35:43.776Z,8.30
2018-03-25T23:38:11.276Z,8.30
2018-03-25T23:40:38.727Z,8.30
2018-03-25T23:43:06.171Z,8.30
2018-03-25T23:45:33.612Z,8.30
2018-03-25T23:48:01.108Z,8.30
2018-03-25T23:50:28.560Z,8.20
2018-03-25T23:52:56.016Z,8.20
2018-03-25T23:55:24.336Z,8.20
2018-03-25T23:57:51.878Z,8.20
